sensor_id;sensor_type;location;lat;lon;timestamp;P1;durP1;ratioP1;P2;durP2;ratioP2
71298;SDS011;59083;47.974;21.722;2023-02-26T00:02:14;9.88;;;3.00;;
71298;SDS011;59083;47.974;21.722;2023-02-26T00:05:15;9.07;;;3.10;;
71298;SDS011;59083;47.974;21.722;2023-02-26T00:08:16;8.65;;;2.92;;
71298;SDS011;59083;47.974;21.722;2023-02-26T00:11:18;6.83;;;2.83;;
71298;SDS011;59083;47.974;21.722;2023-02-26T00:14:19;7.40;;;2.97;;
71298;SDS011;59083;47.974;21.722;2023-02-26T00:20:43;5.82;;;2.90;;
71298;SDS011;59083;47.974;21.722;2023-02-26T00:23:45;8.27;;;3.42;;
71298;SDS011;59083;47.974;21.722;2023-02-26T00:26:46;6.43;;;2.80;;
71298;SDS011;59083;47.974;21.722;2023-02-26T00:29:48;8.63;;;3.10;;
71298;SDS011;59083;47.974;21.722;2023-02-26T00:32:49;6.40;;;2.70;;
71298;SDS011;59083;47.974;21.722;2023-02-26T00:35:52;6.47;;;2.67;;
71298;SDS011;59083;47.974;21.722;2023-02-26T00:39:12;8.38;;;4.20;;
71298;SDS011;59083;47.974;21.722;2023-02-26T00:42:15;7.70;;;2.80;;
71298;SDS011;59083;47.974;21.722;2023-02-26T00:45:17;8.70;;;3.20;;
71298;SDS011;59083;47.974;21.722;2023-02-26T00:48:28;6.47;;;3.00;;
71298;SDS011;59083;47.974;21.722;2023-02-26T00:51:41;7.72;;;3.00;;
71298;SDS011;59083;47.974;21.722;2023-02-26T00:54:49;6.45;;;2.80;;
71298;SDS011;59083;47.974;21.722;2023-02-26T00:57:50;7.83;;;2.80;;
71298;SDS011;59083;47.974;21.722;2023-02-26T01:00:52;8.10;;;2.90;;
71298;SDS011;59083;47.974;21.722;2023-02-26T01:03:53;7.68;;;3.37;;
71298;SDS011;59083;47.974;21.722;2023-02-26T01:06:56;6.87;;;3.00;;
71298;SDS011;59083;47.974;21.722;2023-02-26T01:09:57;8.68;;;3.53;;
71298;SDS011;59083;47.974;21.722;2023-02-26T01:12:59;8.80;;;3.60;;
71298;SDS011;59083;47.974;21.722;2023-02-26T01:16:04;7.27;;;3.00;;
71298;SDS011;59083;47.974;21.722;2023-02-26T01:19:19;7.03;;;3.12;;
71298;SDS011;59083;47.974;21.722;2023-02-26T01:22:34;8.30;;;3.05;;
71298;SDS011;59083;47.974;21.722;2023-02-26T01:25:49;6.72;;;2.85;;
71298;SDS011;59083;47.974;21.722;2023-02-26T01:28:52;7.70;;;3.00;;
71298;SDS011;59083;47.974;21.722;2023-02-26T01:35:06;8.80;;;3.47;;
71298;SDS011;59083;47.974;21.722;2023-02-26T01:38:21;7.95;;;3.62;;
71298;SDS011;59083;47.974;21.722;2023-02-26T01:48:33;10.57;;;4.03;;
71298;SDS011;59083;47.974;21.722;2023-02-26T01:51:40;9.18;;;3.83;;
71298;SDS011;59083;47.974;21.722;2023-02-26T01:54:44;8.70;;;3.87;;
71298;SDS011;59083;47.974;21.722;2023-02-26T01:57:45;9.95;;;4.12;;
71298;SDS011;59083;47.974;21.722;2023-02-26T02:00:48;9.27;;;3.87;;
71298;SDS011;59083;47.974;21.722;2023-02-26T02:03:49;9.60;;;4.07;;
71298;SDS011;59083;47.974;21.722;2023-02-26T02:06:51;8.88;;;4.10;;
71298;SDS011;59083;47.974;21.722;2023-02-26T02:09:54;8.82;;;3.70;;
71298;SDS011;59083;47.974;21.722;2023-02-26T02:13:00;9.63;;;4.03;;
71298;SDS011;59083;47.974;21.722;2023-02-26T02:16:16;9.63;;;3.80;;
71298;SDS011;59083;47.974;21.722;2023-02-26T02:29:26;8.50;;;4.40;;
71298;SDS011;59083;47.974;21.722;2023-02-26T02:32:35;12.80;;;4.63;;
71298;SDS011;59083;47.974;21.722;2023-02-26T02:35:52;9.30;;;3.90;;
71298;SDS011;59083;47.974;21.722;2023-02-26T02:38:59;9.30;;;3.92;;
71298;SDS011;59083;47.974;21.722;2023-02-26T02:45:50;10.30;;;4.40;;
71298;SDS011;59083;47.974;21.722;2023-02-26T02:52:09;8.23;;;4.10;;
71298;SDS011;59083;47.974;21.722;2023-02-26T02:55:18;11.70;;;4.82;;
71298;SDS011;59083;47.974;21.722;2023-02-26T02:58:25;10.45;;;4.45;;
71298;SDS011;59083;47.974;21.722;2023-02-26T03:01:30;10.98;;;4.35;;
71298;SDS011;59083;47.974;21.722;2023-02-26T03:04:34;8.63;;;3.87;;
71298;SDS011;59083;47.974;21.722;2023-02-26T03:07:39;8.70;;;3.97;;
71298;SDS011;59083;47.974;21.722;2023-02-26T03:10:47;7.57;;;3.70;;
71298;SDS011;59083;47.974;21.722;2023-02-26T03:13:49;7.12;;;3.40;;
71298;SDS011;59083;47.974;21.722;2023-02-26T03:23:39;7.63;;;3.70;;
71298;SDS011;59083;47.974;21.722;2023-02-26T03:26:51;8.98;;;3.67;;
71298;SDS011;59083;47.974;21.722;2023-02-26T03:30:02;7.80;;;3.42;;
71298;SDS011;59083;47.974;21.722;2023-02-26T03:36:34;7.17;;;3.53;;
71298;SDS011;59083;47.974;21.722;2023-02-26T03:39:41;8.60;;;3.47;;
71298;SDS011;59083;47.974;21.722;2023-02-26T03:42:48;10.10;;;4.10;;
71298;SDS011;59083;47.974;21.722;2023-02-26T03:45:57;9.32;;;4.18;;
71298;SDS011;59083;47.974;21.722;2023-02-26T03:49:06;9.20;;;4.40;;
71298;SDS011;59083;47.974;21.722;2023-02-26T03:52:15;9.37;;;4.17;;
71298;SDS011;59083;47.974;21.722;2023-02-26T03:58:45;8.50;;;4.32;;
71298;SDS011;59083;47.974;21.722;2023-02-26T04:01:56;8.90;;;4.22;;
71298;SDS011;59083;47.974;21.722;2023-02-26T04:08:15;8.93;;;4.30;;
71298;SDS011;59083;47.974;21.722;2023-02-26T04:11:18;11.53;;;4.57;;
71298;SDS011;59083;47.974;21.722;2023-02-26T04:14:21;9.85;;;4.20;;
71298;SDS011;59083;47.974;21.722;2023-02-26T04:17:22;10.32;;;4.45;;
71298;SDS011;59083;47.974;21.722;2023-02-26T04:20:23;8.68;;;4.18;;
71298;SDS011;59083;47.974;21.722;2023-02-26T04:23:25;9.83;;;4.10;;
71298;SDS011;59083;47.974;21.722;2023-02-26T04:26:26;10.07;;;4.43;;
71298;SDS011;59083;47.974;21.722;2023-02-26T04:29:27;10.73;;;4.28;;
71298;SDS011;59083;47.974;21.722;2023-02-26T04:32:29;11.52;;;4.60;;
71298;SDS011;59083;47.974;21.722;2023-02-26T04:35:30;10.38;;;4.55;;
71298;SDS011;59083;47.974;21.722;2023-02-26T04:38:31;10.40;;;4.33;;
71298;SDS011;59083;47.974;21.722;2023-02-26T04:41:33;8.60;;;3.90;;
71298;SDS011;59083;47.974;21.722;2023-02-26T04:44:34;8.45;;;4.15;;
71298;SDS011;59083;47.974;21.722;2023-02-26T04:47:36;8.77;;;4.10;;
71298;SDS011;59083;47.974;21.722;2023-02-26T04:50:37;11.80;;;5.07;;
71298;SDS011;59083;47.974;21.722;2023-02-26T04:53:38;9.70;;;4.40;;
71298;SDS011;59083;47.974;21.722;2023-02-26T04:56:41;9.97;;;4.57;;
71298;SDS011;59083;47.974;21.722;2023-02-26T04:59:42;10.48;;;5.03;;
71298;SDS011;59083;47.974;21.722;2023-02-26T05:02:46;12.48;;;5.22;;
71298;SDS011;59083;47.974;21.722;2023-02-26T05:05:47;10.32;;;4.30;;
71298;SDS011;59083;47.974;21.722;2023-02-26T05:08:49;10.60;;;4.50;;
71298;SDS011;59083;47.974;21.722;2023-02-26T05:11:52;13.03;;;4.83;;
71298;SDS011;59083;47.974;21.722;2023-02-26T05:14:53;11.30;;;4.68;;
71298;SDS011;59083;47.974;21.722;2023-02-26T05:17:54;10.80;;;4.53;;
71298;SDS011;59083;47.974;21.722;2023-02-26T05:20:55;9.75;;;4.22;;
71298;SDS011;59083;47.974;21.722;2023-02-26T05:23:57;10.07;;;4.67;;
71298;SDS011;59083;47.974;21.722;2023-02-26T05:26:58;10.80;;;4.43;;
71298;SDS011;59083;47.974;21.722;2023-02-26T05:29:59;10.40;;;4.43;;
71298;SDS011;59083;47.974;21.722;2023-02-26T05:33:00;10.23;;;5.03;;
71298;SDS011;59083;47.974;21.722;2023-02-26T05:36:02;11.70;;;4.85;;
71298;SDS011;59083;47.974;21.722;2023-02-26T05:39:03;10.03;;;4.63;;
71298;SDS011;59083;47.974;21.722;2023-02-26T05:42:04;11.73;;;4.83;;
71298;SDS011;59083;47.974;21.722;2023-02-26T05:45:05;9.93;;;4.53;;
71298;SDS011;59083;47.974;21.722;2023-02-26T05:48:07;10.75;;;4.75;;
71298;SDS011;59083;47.974;21.722;2023-02-26T05:51:10;10.85;;;4.93;;
71298;SDS011;59083;47.974;21.722;2023-02-26T05:54:12;11.37;;;4.97;;
71298;SDS011;59083;47.974;21.722;2023-02-26T05:57:13;10.43;;;4.90;;
71298;SDS011;59083;47.974;21.722;2023-02-26T06:00:14;14.95;;;6.68;;
71298;SDS011;59083;47.974;21.722;2023-02-26T06:03:16;12.43;;;5.37;;
71298;SDS011;59083;47.974;21.722;2023-02-26T06:06:17;10.48;;;5.57;;
71298;SDS011;59083;47.974;21.722;2023-02-26T06:09:18;9.40;;;4.83;;
71298;SDS011;59083;47.974;21.722;2023-02-26T06:12:19;12.73;;;5.70;;
71298;SDS011;59083;47.974;21.722;2023-02-26T06:15:21;12.88;;;5.60;;
71298;SDS011;59083;47.974;21.722;2023-02-26T06:18:22;11.32;;;5.10;;
71298;SDS011;59083;47.974;21.722;2023-02-26T06:21:23;10.95;;;5.28;;
71298;SDS011;59083;47.974;21.722;2023-02-26T06:24:24;10.37;;;4.73;;
71298;SDS011;59083;47.974;21.722;2023-02-26T06:27:26;10.77;;;5.23;;
71298;SDS011;59083;47.974;21.722;2023-02-26T06:30:27;10.57;;;5.10;;
71298;SDS011;59083;47.974;21.722;2023-02-26T06:33:28;11.20;;;5.10;;
71298;SDS011;59083;47.974;21.722;2023-02-26T06:36:29;10.73;;;5.35;;
71298;SDS011;59083;47.974;21.722;2023-02-26T06:39:31;11.87;;;5.07;;
71298;SDS011;59083;47.974;21.722;2023-02-26T06:42:32;10.90;;;5.07;;
71298;SDS011;59083;47.974;21.722;2023-02-26T06:45:33;11.00;;;4.78;;
71298;SDS011;59083;47.974;21.722;2023-02-26T06:48:34;11.75;;;4.80;;
71298;SDS011;59083;47.974;21.722;2023-02-26T06:51:36;12.07;;;5.12;;
71298;SDS011;59083;47.974;21.722;2023-02-26T06:54:37;10.77;;;4.63;;
71298;SDS011;59083;47.974;21.722;2023-02-26T06:57:38;8.97;;;4.23;;
71298;SDS011;59083;47.974;21.722;2023-02-26T07:00:39;12.20;;;5.03;;
71298;SDS011;59083;47.974;21.722;2023-02-26T07:03:41;9.32;;;4.25;;
71298;SDS011;59083;47.974;21.722;2023-02-26T07:06:42;9.50;;;4.45;;
71298;SDS011;59083;47.974;21.722;2023-02-26T07:09:43;9.40;;;4.23;;
71298;SDS011;59083;47.974;21.722;2023-02-26T07:12:45;9.10;;;3.80;;
71298;SDS011;59083;47.974;21.722;2023-02-26T07:15:46;9.43;;;4.10;;
71298;SDS011;59083;47.974;21.722;2023-02-26T07:18:47;8.75;;;3.50;;
71298;SDS011;59083;47.974;21.722;2023-02-26T07:21:48;7.85;;;3.00;;
71298;SDS011;59083;47.974;21.722;2023-02-26T07:24:49;8.27;;;3.27;;
71298;SDS011;59083;47.974;21.722;2023-02-26T07:27:51;7.90;;;3.27;;
71298;SDS011;59083;47.974;21.722;2023-02-26T07:30:55;7.82;;;3.60;;
71298;SDS011;59083;47.974;21.722;2023-02-26T07:33:57;8.02;;;3.12;;
71298;SDS011;59083;47.974;21.722;2023-02-26T07:36:58;7.80;;;3.75;;
71298;SDS011;59083;47.974;21.722;2023-02-26T07:40:00;7.70;;;3.37;;
71298;SDS011;59083;47.974;21.722;2023-02-26T07:43:01;8.37;;;3.50;;
71298;SDS011;59083;47.974;21.722;2023-02-26T07:46:02;6.47;;;3.30;;
71298;SDS011;59083;47.974;21.722;2023-02-26T07:49:04;5.85;;;2.85;;
71298;SDS011;59083;47.974;21.722;2023-02-26T07:52:05;7.87;;;3.22;;
71298;SDS011;59083;47.974;21.722;2023-02-26T07:55:08;8.87;;;3.80;;
71298;SDS011;59083;47.974;21.722;2023-02-26T07:58:10;8.40;;;3.63;;
71298;SDS011;59083;47.974;21.722;2023-02-26T08:01:11;10.30;;;3.80;;
71298;SDS011;59083;47.974;21.722;2023-02-26T08:04:12;9.05;;;3.70;;
71298;SDS011;59083;47.974;21.722;2023-02-26T08:07:13;8.80;;;3.70;;
71298;SDS011;59083;47.974;21.722;2023-02-26T08:10:15;7.93;;;3.63;;
71298;SDS011;59083;47.974;21.722;2023-02-26T08:13:16;7.67;;;3.80;;
71298;SDS011;59083;47.974;21.722;2023-02-26T08:16:17;7.50;;;3.17;;
71298;SDS011;59083;47.974;21.722;2023-02-26T08:19:19;9.50;;;4.10;;
71298;SDS011;59083;47.974;21.722;2023-02-26T08:22:20;10.90;;;4.18;;
71298;SDS011;59083;47.974;21.722;2023-02-26T08:25:23;8.17;;;3.60;;
71298;SDS011;59083;47.974;21.722;2023-02-26T08:28:24;7.90;;;4.30;;
71298;SDS011;59083;47.974;21.722;2023-02-26T08:31:25;8.10;;;3.75;;
71298;SDS011;59083;47.974;21.722;2023-02-26T08:34:28;9.48;;;4.03;;
71298;SDS011;59083;47.974;21.722;2023-02-26T08:37:29;10.68;;;4.32;;
71298;SDS011;59083;47.974;21.722;2023-02-26T08:40:31;7.80;;;3.87;;
71298;SDS011;59083;47.974;21.722;2023-02-26T08:43:32;8.90;;;4.27;;
71298;SDS011;59083;47.974;21.722;2023-02-26T08:46:33;7.45;;;3.78;;
71298;SDS011;59083;47.974;21.722;2023-02-26T08:49:34;8.75;;;4.40;;
71298;SDS011;59083;47.974;21.722;2023-02-26T08:52:35;10.00;;;4.05;;
71298;SDS011;59083;47.974;21.722;2023-02-26T08:55:38;9.63;;;4.00;;
71298;SDS011;59083;47.974;21.722;2023-02-26T08:58:39;11.47;;;4.50;;
71298;SDS011;59083;47.974;21.722;2023-02-26T09:01:40;9.98;;;4.32;;
71298;SDS011;59083;47.974;21.722;2023-02-26T09:04:42;8.23;;;3.90;;
71298;SDS011;59083;47.974;21.722;2023-02-26T09:07:43;8.48;;;4.00;;
71298;SDS011;59083;47.974;21.722;2023-02-26T09:10:45;12.60;;;4.53;;
71298;SDS011;59083;47.974;21.722;2023-02-26T09:13:46;11.53;;;5.33;;
71298;SDS011;59083;47.974;21.722;2023-02-26T09:16:48;8.70;;;4.45;;
71298;SDS011;59083;47.974;21.722;2023-02-26T09:19:50;8.18;;;4.00;;
71298;SDS011;59083;47.974;21.722;2023-02-26T09:22:51;7.72;;;3.72;;
71298;SDS011;59083;47.974;21.722;2023-02-26T09:25:53;7.00;;;3.60;;
71298;SDS011;59083;47.974;21.722;2023-02-26T09:28:55;9.80;;;4.10;;
71298;SDS011;59083;47.974;21.722;2023-02-26T09:31:56;10.85;;;4.25;;
71298;SDS011;59083;47.974;21.722;2023-02-26T09:34:59;8.63;;;3.85;;
71298;SDS011;59083;47.974;21.722;2023-02-26T09:38:00;7.00;;;3.53;;
71298;SDS011;59083;47.974;21.722;2023-02-26T09:41:08;8.17;;;4.13;;
71298;SDS011;59083;47.974;21.722;2023-02-26T09:44:18;9.10;;;4.33;;
71298;SDS011;59083;47.974;21.722;2023-02-26T09:47:25;8.30;;;4.03;;
71298;SDS011;59083;47.974;21.722;2023-02-26T09:53:43;9.00;;;4.25;;
71298;SDS011;59083;47.974;21.722;2023-02-26T09:56:45;9.23;;;4.37;;
71298;SDS011;59083;47.974;21.722;2023-02-26T09:59:47;9.23;;;3.70;;
71298;SDS011;59083;47.974;21.722;2023-02-26T10:02:54;8.75;;;3.85;;
71298;SDS011;59083;47.974;21.722;2023-02-26T10:06:11;8.82;;;4.03;;
71298;SDS011;59083;47.974;21.722;2023-02-26T10:12:27;8.00;;;3.45;;
71298;SDS011;59083;47.974;21.722;2023-02-26T10:15:39;8.53;;;3.93;;
71298;SDS011;59083;47.974;21.722;2023-02-26T10:18:47;7.85;;;3.78;;
71298;SDS011;59083;47.974;21.722;2023-02-26T10:22:16;7.85;;;3.92;;
71298;SDS011;59083;47.974;21.722;2023-02-26T10:25:24;8.73;;;3.97;;
71298;SDS011;59083;47.974;21.722;2023-02-26T10:28:53;7.67;;;3.70;;
71298;SDS011;59083;47.974;21.722;2023-02-26T10:32:24;7.23;;;3.33;;
71298;SDS011;59083;47.974;21.722;2023-02-26T10:35:23;9.20;;;4.22;;
71298;SDS011;59083;47.974;21.722;2023-02-26T10:38:29;8.40;;;3.65;;
71298;SDS011;59083;47.974;21.722;2023-02-26T10:41:32;7.93;;;3.80;;
71298;SDS011;59083;47.974;21.722;2023-02-26T10:51:19;7.07;;;3.40;;
71298;SDS011;59083;47.974;21.722;2023-02-26T10:54:35;7.12;;;3.30;;
71298;SDS011;59083;47.974;21.722;2023-02-26T10:57:41;8.18;;;3.50;;
71298;SDS011;59083;47.974;21.722;2023-02-26T11:00:48;13.53;;;4.03;;
71298;SDS011;59083;47.974;21.722;2023-02-26T11:03:54;8.43;;;3.43;;
71298;SDS011;59083;47.974;21.722;2023-02-26T11:06:59;8.38;;;3.67;;
71298;SDS011;59083;47.974;21.722;2023-02-26T11:10:03;7.90;;;3.53;;
71298;SDS011;59083;47.974;21.722;2023-02-26T11:13:12;10.20;;;4.00;;
71298;SDS011;59083;47.974;21.722;2023-02-26T11:16:13;6.00;;;3.05;;
71298;SDS011;59083;47.974;21.722;2023-02-26T11:19:15;8.53;;;4.10;;
71298;SDS011;59083;47.974;21.722;2023-02-26T11:22:17;7.55;;;3.10;;
71298;SDS011;59083;47.974;21.722;2023-02-26T11:25:22;6.65;;;3.10;;
71298;SDS011;59083;47.974;21.722;2023-02-26T11:28:29;6.22;;;3.05;;
71298;SDS011;59083;47.974;21.722;2023-02-26T11:31:34;6.93;;;3.47;;
71298;SDS011;59083;47.974;21.722;2023-02-26T11:34:35;7.13;;;3.20;;
71298;SDS011;59083;47.974;21.722;2023-02-26T11:37:38;7.60;;;3.17;;
71298;SDS011;59083;47.974;21.722;2023-02-26T11:40:42;7.18;;;3.42;;
71298;SDS011;59083;47.974;21.722;2023-02-26T11:43:48;6.80;;;3.30;;
71298;SDS011;59083;47.974;21.722;2023-02-26T11:46:56;6.33;;;3.23;;
71298;SDS011;59083;47.974;21.722;2023-02-26T11:50:02;7.40;;;3.23;;
71298;SDS011;59083;47.974;21.722;2023-02-26T11:53:18;7.00;;;2.50;;
71298;SDS011;59083;47.974;21.722;2023-02-26T11:56:40;7.15;;;3.22;;
71298;SDS011;59083;47.974;21.722;2023-02-26T11:59:43;7.75;;;3.50;;
71298;SDS011;59083;47.974;21.722;2023-02-26T12:02:48;7.23;;;3.23;;
71298;SDS011;59083;47.974;21.722;2023-02-26T12:05:49;6.27;;;3.00;;
71298;SDS011;59083;47.974;21.722;2023-02-26T12:08:52;6.60;;;2.90;;
71298;SDS011;59083;47.974;21.722;2023-02-26T12:12:01;8.30;;;3.17;;
71298;SDS011;59083;47.974;21.722;2023-02-26T12:25:13;7.10;;;2.75;;
71298;SDS011;59083;47.974;21.722;2023-02-26T12:48:16;5.70;;;2.85;;
71298;SDS011;59083;47.974;21.722;2023-02-26T13:04:41;9.80;;;2.65;;
71298;SDS011;59083;47.974;21.722;2023-02-26T13:19:55;6.93;;;2.70;;
71298;SDS011;59083;47.974;21.722;2023-02-26T13:23:01;5.87;;;2.53;;
71298;SDS011;59083;47.974;21.722;2023-02-26T13:26:16;5.47;;;2.33;;
71298;SDS011;59083;47.974;21.722;2023-02-26T13:29:30;6.20;;;2.58;;
71298;SDS011;59083;47.974;21.722;2023-02-26T13:32:36;6.40;;;2.53;;
71298;SDS011;59083;47.974;21.722;2023-02-26T13:35:39;6.93;;;2.50;;
71298;SDS011;59083;47.974;21.722;2023-02-26T13:52:48;5.82;;;2.65;;
71298;SDS011;59083;47.974;21.722;2023-02-26T13:55:54;6.63;;;2.60;;
71298;SDS011;59083;47.974;21.722;2023-02-26T14:05:52;6.37;;;2.92;;
71298;SDS011;59083;47.974;21.722;2023-02-26T14:08:55;5.82;;;2.55;;
71298;SDS011;59083;47.974;21.722;2023-02-26T14:12:01;6.57;;;2.67;;
71298;SDS011;59083;47.974;21.722;2023-02-26T14:15:19;6.90;;;2.80;;
71298;SDS011;59083;47.974;21.722;2023-02-26T14:18:29;8.60;;;3.03;;
71298;SDS011;59083;47.974;21.722;2023-02-26T14:25:14;8.15;;;3.28;;
71298;SDS011;59083;47.974;21.722;2023-02-26T14:28:40;6.77;;;3.10;;
71298;SDS011;59083;47.974;21.722;2023-02-26T14:35:09;6.72;;;2.83;;
71298;SDS011;59083;47.974;21.722;2023-02-26T14:38:29;8.27;;;2.70;;
71298;SDS011;59083;47.974;21.722;2023-02-26T14:41:37;7.28;;;2.97;;
71298;SDS011;59083;47.974;21.722;2023-02-26T14:44:46;7.13;;;3.20;;
71298;SDS011;59083;47.974;21.722;2023-02-26T14:47:50;8.02;;;3.00;;
71298;SDS011;59083;47.974;21.722;2023-02-26T14:54:29;6.47;;;2.90;;
71298;SDS011;59083;47.974;21.722;2023-02-26T15:11:10;8.23;;;3.42;;
71298;SDS011;59083;47.974;21.722;2023-02-26T15:18:05;7.23;;;3.10;;
71298;SDS011;59083;47.974;21.722;2023-02-26T15:24:40;10.63;;;3.40;;
71298;SDS011;59083;47.974;21.722;2023-02-26T15:27:41;9.02;;;3.42;;
71298;SDS011;59083;47.974;21.722;2023-02-26T15:30:43;8.23;;;3.20;;
71298;SDS011;59083;47.974;21.722;2023-02-26T15:33:48;6.73;;;2.60;;
71298;SDS011;59083;47.974;21.722;2023-02-26T15:36:50;8.90;;;3.30;;
71298;SDS011;59083;47.974;21.722;2023-02-26T15:39:54;9.95;;;3.40;;
71298;SDS011;59083;47.974;21.722;2023-02-26T15:42:56;6.95;;;3.05;;
71298;SDS011;59083;47.974;21.722;2023-02-26T15:45:58;10.55;;;3.70;;
71298;SDS011;59083;47.974;21.722;2023-02-26T15:49:01;8.90;;;3.20;;
71298;SDS011;59083;47.974;21.722;2023-02-26T15:52:12;6.60;;;2.70;;
71298;SDS011;59083;47.974;21.722;2023-02-26T15:55:16;7.60;;;2.72;;
71298;SDS011;59083;47.974;21.722;2023-02-26T15:58:19;9.07;;;2.75;;
71298;SDS011;59083;47.974;21.722;2023-02-26T16:01:24;9.65;;;3.42;;
71298;SDS011;59083;47.974;21.722;2023-02-26T16:04:26;7.97;;;3.30;;
71298;SDS011;59083;47.974;21.722;2023-02-26T16:07:28;7.05;;;2.80;;
71298;SDS011;59083;47.974;21.722;2023-02-26T16:10:38;10.23;;;3.00;;
71298;SDS011;59083;47.974;21.722;2023-02-26T16:13:43;7.47;;;3.00;;
71298;SDS011;59083;47.974;21.722;2023-02-26T16:16:47;7.47;;;2.78;;
71298;SDS011;59083;47.974;21.722;2023-02-26T16:19:49;8.00;;;3.10;;
71298;SDS011;59083;47.974;21.722;2023-02-26T16:22:54;7.68;;;2.83;;
71298;SDS011;59083;47.974;21.722;2023-02-26T16:26:00;6.57;;;2.95;;
71298;SDS011;59083;47.974;21.722;2023-02-26T16:29:25;8.35;;;3.17;;
71298;SDS011;59083;47.974;21.722;2023-02-26T16:32:28;7.30;;;2.90;;
71298;SDS011;59083;47.974;21.722;2023-02-26T16:35:32;8.57;;;3.33;;
71298;SDS011;59083;47.974;21.722;2023-02-26T16:38:45;7.68;;;3.15;;
71298;SDS011;59083;47.974;21.722;2023-02-26T16:41:59;6.05;;;2.83;;
71298;SDS011;59083;47.974;21.722;2023-02-26T16:48:20;8.07;;;3.08;;
71298;SDS011;59083;47.974;21.722;2023-02-26T16:51:23;6.30;;;2.80;;
71298;SDS011;59083;47.974;21.722;2023-02-26T16:54:35;10.07;;;3.03;;
71298;SDS011;59083;47.974;21.722;2023-02-26T16:57:39;8.63;;;3.58;;
71298;SDS011;59083;47.974;21.722;2023-02-26T17:00:44;7.78;;;3.40;;
71298;SDS011;59083;47.974;21.722;2023-02-26T17:03:51;6.87;;;3.03;;
71298;SDS011;59083;47.974;21.722;2023-02-26T17:07:00;6.17;;;2.90;;
71298;SDS011;59083;47.974;21.722;2023-02-26T17:10:08;6.20;;;2.92;;
71298;SDS011;59083;47.974;21.722;2023-02-26T17:13:30;8.20;;;2.83;;
71298;SDS011;59083;47.974;21.722;2023-02-26T17:16:32;8.00;;;3.05;;
71298;SDS011;59083;47.974;21.722;2023-02-26T17:19:34;7.05;;;2.90;;
71298;SDS011;59083;47.974;21.722;2023-02-26T17:22:35;6.80;;;2.77;;
71298;SDS011;59083;47.974;21.722;2023-02-26T17:25:45;8.25;;;3.40;;
71298;SDS011;59083;47.974;21.722;2023-02-26T17:28:50;8.18;;;3.10;;
71298;SDS011;59083;47.974;21.722;2023-02-26T17:31:51;8.10;;;3.35;;
71298;SDS011;59083;47.974;21.722;2023-02-26T17:34:53;7.07;;;2.78;;
71298;SDS011;59083;47.974;21.722;2023-02-26T17:37:54;10.20;;;3.73;;
71298;SDS011;59083;47.974;21.722;2023-02-26T17:40:56;9.40;;;3.65;;
71298;SDS011;59083;47.974;21.722;2023-02-26T17:43:58;8.93;;;3.33;;
71298;SDS011;59083;47.974;21.722;2023-02-26T17:46:59;8.30;;;3.85;;
71298;SDS011;59083;47.974;21.722;2023-02-26T17:50:01;10.40;;;4.00;;
71298;SDS011;59083;47.974;21.722;2023-02-26T17:53:02;9.20;;;3.60;;
71298;SDS011;59083;47.974;21.722;2023-02-26T17:56:04;8.50;;;3.55;;
71298;SDS011;59083;47.974;21.722;2023-02-26T17:59:09;10.90;;;3.87;;
71298;SDS011;59083;47.974;21.722;2023-02-26T18:02:16;9.05;;;3.90;;
71298;SDS011;59083;47.974;21.722;2023-02-26T18:05:23;9.10;;;3.97;;
71298;SDS011;59083;47.974;21.722;2023-02-26T18:08:30;10.47;;;4.20;;
71298;SDS011;59083;47.974;21.722;2023-02-26T18:11:34;9.50;;;3.85;;
71298;SDS011;59083;47.974;21.722;2023-02-26T18:14:35;14.05;;;3.70;;
71298;SDS011;59083;47.974;21.722;2023-02-26T18:17:36;8.88;;;3.80;;
71298;SDS011;59083;47.974;21.722;2023-02-26T18:20:38;8.38;;;3.72;;
71298;SDS011;59083;47.974;21.722;2023-02-26T18:23:40;9.07;;;4.17;;
71298;SDS011;59083;47.974;21.722;2023-02-26T18:26:41;9.75;;;4.12;;
71298;SDS011;59083;47.974;21.722;2023-02-26T18:29:42;9.98;;;4.05;;
71298;SDS011;59083;47.974;21.722;2023-02-26T18:32:43;9.30;;;3.67;;
71298;SDS011;59083;47.974;21.722;2023-02-26T18:35:46;9.32;;;3.50;;
71298;SDS011;59083;47.974;21.722;2023-02-26T18:38:52;7.93;;;3.27;;
71298;SDS011;59083;47.974;21.722;2023-02-26T18:41:53;6.55;;;3.40;;
71298;SDS011;59083;47.974;21.722;2023-02-26T18:44:55;8.60;;;3.70;;
71298;SDS011;59083;47.974;21.722;2023-02-26T18:47:56;8.25;;;3.70;;
71298;SDS011;59083;47.974;21.722;2023-02-26T18:50:57;8.82;;;3.47;;
71298;SDS011;59083;47.974;21.722;2023-02-26T18:53:59;7.53;;;3.50;;
71298;SDS011;59083;47.974;21.722;2023-02-26T18:57:00;11.27;;;4.78;;
71298;SDS011;59083;47.974;21.722;2023-02-26T19:00:02;9.13;;;3.40;;
71298;SDS011;59083;47.974;21.722;2023-02-26T19:03:05;8.45;;;3.33;;
71298;SDS011;59083;47.974;21.722;2023-02-26T19:06:08;7.80;;;3.45;;
71298;SDS011;59083;47.974;21.722;2023-02-26T19:09:09;10.20;;;4.40;;
71298;SDS011;59083;47.974;21.722;2023-02-26T19:12:11;7.90;;;3.47;;
71298;SDS011;59083;47.974;21.722;2023-02-26T19:15:19;8.80;;;3.58;;
71298;SDS011;59083;47.974;21.722;2023-02-26T19:18:20;7.95;;;3.60;;
71298;SDS011;59083;47.974;21.722;2023-02-26T19:21:21;10.00;;;3.97;;
71298;SDS011;59083;47.974;21.722;2023-02-26T19:24:23;10.10;;;3.83;;
71298;SDS011;59083;47.974;21.722;2023-02-26T19:27:24;11.38;;;4.20;;
71298;SDS011;59083;47.974;21.722;2023-02-26T19:30:25;9.40;;;4.18;;
71298;SDS011;59083;47.974;21.722;2023-02-26T19:33:27;9.90;;;3.78;;
71298;SDS011;59083;47.974;21.722;2023-02-26T19:36:28;8.88;;;4.10;;
71298;SDS011;59083;47.974;21.722;2023-02-26T19:39:33;12.10;;;4.03;;
71298;SDS011;59083;47.974;21.722;2023-02-26T19:42:34;8.00;;;3.50;;
71298;SDS011;59083;47.974;21.722;2023-02-26T19:45:35;8.95;;;3.97;;
71298;SDS011;59083;47.974;21.722;2023-02-26T19:48:36;9.23;;;3.62;;
71298;SDS011;59083;47.974;21.722;2023-02-26T19:51:37;8.93;;;4.28;;
71298;SDS011;59083;47.974;21.722;2023-02-26T19:54:39;9.37;;;3.93;;
71298;SDS011;59083;47.974;21.722;2023-02-26T19:57:40;9.90;;;4.35;;
71298;SDS011;59083;47.974;21.722;2023-02-26T20:00:41;10.40;;;4.10;;
71298;SDS011;59083;47.974;21.722;2023-02-26T20:03:43;7.25;;;3.75;;
71298;SDS011;59083;47.974;21.722;2023-02-26T20:06:44;8.85;;;3.70;;
71298;SDS011;59083;47.974;21.722;2023-02-26T20:09:45;10.27;;;4.33;;
71298;SDS011;59083;47.974;21.722;2023-02-26T20:12:46;8.73;;;4.18;;
71298;SDS011;59083;47.974;21.722;2023-02-26T20:15:48;8.68;;;4.25;;
71298;SDS011;59083;47.974;21.722;2023-02-26T20:18:50;8.20;;;3.12;;
71298;SDS011;59083;47.974;21.722;2023-02-26T20:21:51;11.15;;;4.55;;
71298;SDS011;59083;47.974;21.722;2023-02-26T20:24:52;9.77;;;4.40;;
71298;SDS011;59083;47.974;21.722;2023-02-26T20:27:53;9.50;;;4.37;;
71298;SDS011;59083;47.974;21.722;2023-02-26T20:30:54;9.43;;;4.57;;
71298;SDS011;59083;47.974;21.722;2023-02-26T20:33:56;12.52;;;4.07;;
71298;SDS011;59083;47.974;21.722;2023-02-26T20:36:58;10.63;;;4.35;;
71298;SDS011;59083;47.974;21.722;2023-02-26T20:39:59;9.63;;;4.17;;
71298;SDS011;59083;47.974;21.722;2023-02-26T20:43:00;9.07;;;3.55;;
71298;SDS011;59083;47.974;21.722;2023-02-26T20:46:02;8.85;;;4.22;;
71298;SDS011;59083;47.974;21.722;2023-02-26T20:49:04;9.70;;;4.68;;
71298;SDS011;59083;47.974;21.722;2023-02-26T20:52:11;8.40;;;3.70;;
71298;SDS011;59083;47.974;21.722;2023-02-26T20:55:12;9.73;;;4.27;;
71298;SDS011;59083;47.974;21.722;2023-02-26T20:58:13;9.48;;;3.70;;
71298;SDS011;59083;47.974;21.722;2023-02-26T21:01:14;9.68;;;4.78;;